sensor_id;sensor_type;location;lat;lon;timestamp;temperature;humidity
22974;DHT22;11653;50.848;4.584;2023-03-19T00:00:04;13.10;99.90
22974;DHT22;11653;50.848;4.584;2023-03-19T00:02:35;13.20;99.90
22974;DHT22;11653;50.848;4.584;2023-03-19T00:05:01;13.20;99.90
22974;DHT22;11653;50.848;4.584;2023-03-19T00:07:27;13.20;99.90
22974;DHT22;11653;50.848;4.584;2023-03-19T00:09:52;13.20;99.90
22974;DHT22;11653;50.848;4.584;2023-03-19T00:12:18;13.10;99.90
22974;DHT22;11653;50.848;4.584;2023-03-19T00:14:44;13.20;99.90
22974;DHT22;11653;50.848;4.584;2023-03-19T00:17:10;13.20;99.90
22974;DHT22;11653;50.848;4.584;2023-03-19T00:19:36;13.10;99.90
22974;DHT22;11653;50.848;4.584;2023-03-19T00:22:01;13.10;99.90
22974;DHT22;11653;50.848;4.584;2023-03-19T00:24:27;13.10;99.90
22974;DHT22;11653;50.848;4.584;2023-03-19T00:26:53;13.10;99.90
22974;DHT22;11653;50.848;4.584;2023-03-19T00:29:19;13.10;99.90
22974;DHT22;11653;50.848;4.584;2023-03-19T00:31:45;13.10;99.90
22974;DHT22;11653;50.848;4.584;2023-03-19T00:34:12;13.10;99.90
22974;DHT22;11653;50.848;4.584;2023-03-19T00:36:38;13.00;99.90
22974;DHT22;11653;50.848;4.584;2023-03-19T00:39:04;13.00;99.90
22974;DHT22;11653;50.848;4.584;2023-03-19T00:41:31;13.10;99.90
22974;DHT22;11653;50.848;4.584;2023-03-19T00:43:57;13.10;99.90
22974;DHT22;11653;50.848;4.584;2023-03-19T00:46:23;13.10;99.90
22974;DHT22;11653;50.848;4.584;2023-03-19T00:48:50;13.10;99.90
22974;DHT22;11653;50.848;4.584;2023-03-19T00:51:20;13.10;99.90
22974;DHT22;11653;50.848;4.584;2023-03-19T00:53:46;13.00;99.90
22974;DHT22;11653;50.848;4.584;2023-03-19T00:56:13;13.10;99.90
22974;DHT22;11653;50.848;4.584;2023-03-19T00:58:40;13.10;99.90
22974;DHT22;11653;50.848;4.584;2023-03-19T01:01:08;13.10;99.90
22974;DHT22;11653;50.848;4.584;2023-03-19T01:03:34;13.10;99.90
22974;DHT22;11653;50.848;4.584;2023-03-19T01:06:00;13.10;99.90
22974;DHT22;11653;50.848;4.584;2023-03-19T01:08:26;13.10;99.90
22974;DHT22;11653;50.848;4.584;2023-03-19T01:10:52;13.10;99.90
22974;DHT22;11653;50.848;4.584;2023-03-19T01:13:17;13.10;99.90
22974;DHT22;11653;50.848;4.584;2023-03-19T01:15:44;13.00;99.90
22974;DHT22;11653;50.848;4.584;2023-03-19T01:18:10;13.00;99.90
22974;DHT22;11653;50.848;4.584;2023-03-19T01:20:38;13.00;99.90
22974;DHT22;11653;50.848;4.584;2023-03-19T01:23:05;13.00;99.90
22974;DHT22;11653;50.848;4.584;2023-03-19T01:25:32;13.00;99.90
22974;DHT22;11653;50.848;4.584;2023-03-19T01:27:58;13.10;99.90
22974;DHT22;11653;50.848;4.584;2023-03-19T01:30:25;13.00;99.90
22974;DHT22;11653;50.848;4.584;2023-03-19T01:32:51;13.00;99.90
22974;DHT22;11653;50.848;4.584;2023-03-19T01:35:18;13.10;99.90
22974;DHT22;11653;50.848;4.584;2023-03-19T01:37:45;13.00;99.90
22974;DHT22;11653;50.848;4.584;2023-03-19T01:40:12;13.00;99.90
22974;DHT22;11653;50.848;4.584;2023-03-19T01:47:56;13.00;99.90
22974;DHT22;11653;50.848;4.584;2023-03-19T01:50:48;12.90;99.90
22974;DHT22;11653;50.848;4.584;2023-03-19T01:53:17;13.00;99.90
22974;DHT22;11653;50.848;4.584;2023-03-19T01:55:44;13.00;99.90
22974;DHT22;11653;50.848;4.584;2023-03-19T01:58:10;13.00;99.90
22974;DHT22;11653;50.848;4.584;2023-03-19T02:00:37;13.00;99.90
22974;DHT22;11653;50.848;4.584;2023-03-19T02:03:04;13.00;99.90
22974;DHT22;11653;50.848;4.584;2023-03-19T02:05:32;13.00;99.90
22974;DHT22;11653;50.848;4.584;2023-03-19T02:08:02;13.00;99.90
22974;DHT22;11653;50.848;4.584;2023-03-19T02:10:30;13.00;99.90
22974;DHT22;11653;50.848;4.584;2023-03-19T02:12:56;13.10;99.90
22974;DHT22;11653;50.848;4.584;2023-03-19T02:15:22;13.00;99.90
22974;DHT22;11653;50.848;4.584;2023-03-19T02:17:47;13.10;99.90
22974;DHT22;11653;50.848;4.584;2023-03-19T02:23:14;13.10;99.90
22974;DHT22;11653;50.848;4.584;2023-03-19T02:28:18;13.20;99.90
22974;DHT22;11653;50.848;4.584;2023-03-19T02:30:46;13.10;99.90
22974;DHT22;11653;50.848;4.584;2023-03-19T02:33:14;13.20;99.90
22974;DHT22;11653;50.848;4.584;2023-03-19T02:35:44;13.30;99.90
22974;DHT22;11653;50.848;4.584;2023-03-19T02:38:11;13.10;99.90
22974;DHT22;11653;50.848;4.584;2023-03-19T02:40:43;13.20;99.90
22974;DHT22;11653;50.848;4.584;2023-03-19T02:43:09;13.20;99.90
22974;DHT22;11653;50.848;4.584;2023-03-19T02:45:35;13.20;99.90
22974;DHT22;11653;50.848;4.584;2023-03-19T02:48:01;13.20;99.90
22974;DHT22;11653;50.848;4.584;2023-03-19T02:50:27;13.10;99.90
22974;DHT22;11653;50.848;4.584;2023-03-19T02:52:53;13.20;99.90
22974;DHT22;11653;50.848;4.584;2023-03-19T02:55:19;13.20;99.90
22974;DHT22;11653;50.848;4.584;2023-03-19T02:57:46;13.10;99.90
22974;DHT22;11653;50.848;4.584;2023-03-19T03:00:12;13.10;99.90
22974;DHT22;11653;50.848;4.584;2023-03-19T03:02:38;13.10;99.90
22974;DHT22;11653;50.848;4.584;2023-03-19T03:05:05;13.10;99.90
22974;DHT22;11653;50.848;4.584;2023-03-19T03:07:31;13.10;99.90
22974;DHT22;11653;50.848;4.584;2023-03-19T03:09:57;13.20;99.90
22974;DHT22;11653;50.848;4.584;2023-03-19T03:12:23;13.30;99.90
22974;DHT22;11653;50.848;4.584;2023-03-19T03:14:49;13.20;99.90
22974;DHT22;11653;50.848;4.584;2023-03-19T03:17:15;13.30;99.90
22974;DHT22;11653;50.848;4.584;2023-03-19T03:19:41;13.30;99.90
22974;DHT22;11653;50.848;4.584;2023-03-19T03:22:07;13.20;99.90
22974;DHT22;11653;50.848;4.584;2023-03-19T03:24:33;13.20;99.90
22974;DHT22;11653;50.848;4.584;2023-03-19T03:26:59;13.30;99.90
22974;DHT22;11653;50.848;4.584;2023-03-19T03:29:24;13.30;99.90
22974;DHT22;11653;50.848;4.584;2023-03-19T03:31:52;13.30;99.90
22974;DHT22;11653;50.848;4.584;2023-03-19T03:34:18;13.30;99.90
22974;DHT22;11653;50.848;4.584;2023-03-19T03:36:48;13.40;99.90
22974;DHT22;11653;50.848;4.584;2023-03-19T03:39:15;13.30;99.90
22974;DHT22;11653;50.848;4.584;2023-03-19T03:41:41;13.40;99.90
22974;DHT22;11653;50.848;4.584;2023-03-19T03:44:07;13.40;99.90
22974;DHT22;11653;50.848;4.584;2023-03-19T03:46:33;13.40;99.90
22974;DHT22;11653;50.848;4.584;2023-03-19T03:48:59;13.30;99.90
22974;DHT22;11653;50.848;4.584;2023-03-19T03:51:25;13.40;99.90
22974;DHT22;11653;50.848;4.584;2023-03-19T03:53:50;13.30;99.90
22974;DHT22;11653;50.848;4.584;2023-03-19T03:56:16;13.30;99.90
22974;DHT22;11653;50.848;4.584;2023-03-19T03:58:42;13.20;99.90
22974;DHT22;11653;50.848;4.584;2023-03-19T04:01:13;13.10;99.90
22974;DHT22;11653;50.848;4.584;2023-03-19T04:03:40;13.00;99.90
22974;DHT22;11653;50.848;4.584;2023-03-19T04:06:06;12.90;99.90
22974;DHT22;11653;50.848;4.584;2023-03-19T04:08:34;12.80;99.90
22974;DHT22;11653;50.848;4.584;2023-03-19T04:11:05;12.80;99.90
22974;DHT22;11653;50.848;4.584;2023-03-19T04:13:32;12.70;99.90
22974;DHT22;11653;50.848;4.584;2023-03-19T04:16:03;12.60;99.90
22974;DHT22;11653;50.848;4.584;2023-03-19T04:18:29;12.50;99.90
22974;DHT22;11653;50.848;4.584;2023-03-19T04:20:55;12.50;99.90
22974;DHT22;11653;50.848;4.584;2023-03-19T04:23:22;12.30;99.90
22974;DHT22;11653;50.848;4.584;2023-03-19T04:25:48;12.20;99.90
22974;DHT22;11653;50.848;4.584;2023-03-19T04:28:15;12.20;99.90
22974;DHT22;11653;50.848;4.584;2023-03-19T04:30:40;12.20;99.90
22974;DHT22;11653;50.848;4.584;2023-03-19T04:33:08;12.10;99.90
22974;DHT22;11653;50.848;4.584;2023-03-19T04:35:35;12.10;99.90
22974;DHT22;11653;50.848;4.584;2023-03-19T04:38:01;12.00;99.90
22974;DHT22;11653;50.848;4.584;2023-03-19T04:40:27;11.90;99.90
22974;DHT22;11653;50.848;4.584;2023-03-19T04:42:53;11.90;99.90
22974;DHT22;11653;50.848;4.584;2023-03-19T04:45:19;11.90;99.90
22974;DHT22;11653;50.848;4.584;2023-03-19T04:47:45;11.80;99.90
22974;DHT22;11653;50.848;4.584;2023-03-19T04:50:11;11.70;99.90
22974;DHT22;11653;50.848;4.584;2023-03-19T04:52:38;11.70;99.90
22974;DHT22;11653;50.848;4.584;2023-03-19T04:55:06;11.70;99.90
22974;DHT22;11653;50.848;4.584;2023-03-19T04:57:32;11.70;99.90
22974;DHT22;11653;50.848;4.584;2023-03-19T04:59:58;11.70;99.90
22974;DHT22;11653;50.848;4.584;2023-03-19T05:02:25;11.70;99.90
22974;DHT22;11653;50.848;4.584;2023-03-19T05:04:51;11.60;99.90
22974;DHT22;11653;50.848;4.584;2023-03-19T05:07:18;11.60;99.90
22974;DHT22;11653;50.848;4.584;2023-03-19T05:09:43;11.40;99.90
22974;DHT22;11653;50.848;4.584;2023-03-19T05:12:11;11.30;99.90
22974;DHT22;11653;50.848;4.584;2023-03-19T05:14:37;11.30;99.90
22974;DHT22;11653;50.848;4.584;2023-03-19T05:17:03;11.30;99.90
22974;DHT22;11653;50.848;4.584;2023-03-19T05:19:28;11.40;99.90
22974;DHT22;11653;50.848;4.584;2023-03-19T05:21:54;11.50;99.90
22974;DHT22;11653;50.848;4.584;2023-03-19T05:24:22;11.50;99.90
22974;DHT22;11653;50.848;4.584;2023-03-19T05:26:48;11.50;99.90
22974;DHT22;11653;50.848;4.584;2023-03-19T05:29:13;11.60;99.90
22974;DHT22;11653;50.848;4.584;2023-03-19T05:31:40;11.50;99.90
22974;DHT22;11653;50.848;4.584;2023-03-19T05:34:06;11.50;99.90
22974;DHT22;11653;50.848;4.584;2023-03-19T05:36:32;11.30;99.90
22974;DHT22;11653;50.848;4.584;2023-03-19T05:38:58;11.10;99.90
22974;DHT22;11653;50.848;4.584;2023-03-19T05:41:24;11.00;99.90
22974;DHT22;11653;50.848;4.584;2023-03-19T05:43:50;11.00;99.90
22974;DHT22;11653;50.848;4.584;2023-03-19T05:46:16;11.10;99.90
22974;DHT22;11653;50.848;4.584;2023-03-19T05:48:42;11.00;99.90
22974;DHT22;11653;50.848;4.584;2023-03-19T05:51:07;10.90;99.90
22974;DHT22;11653;50.848;4.584;2023-03-19T05:53:33;10.90;99.90
22974;DHT22;11653;50.848;4.584;2023-03-19T05:55:59;10.90;99.90
22974;DHT22;11653;50.848;4.584;2023-03-19T05:58:25;10.90;99.90
22974;DHT22;11653;50.848;4.584;2023-03-19T06:00:54;11.00;99.90
22974;DHT22;11653;50.848;4.584;2023-03-19T06:03:21;11.00;99.90
22974;DHT22;11653;50.848;4.584;2023-03-19T06:05:50;11.00;99.90
22974;DHT22;11653;50.848;4.584;2023-03-19T06:08:16;11.10;99.90
22974;DHT22;11653;50.848;4.584;2023-03-19T06:10:42;11.10;99.90
22974;DHT22;11653;50.848;4.584;2023-03-19T06:13:08;11.20;99.90
22974;DHT22;11653;50.848;4.584;2023-03-19T06:15:34;11.30;99.90
22974;DHT22;11653;50.848;4.584;2023-03-19T06:17:59;11.30;99.90
22974;DHT22;11653;50.848;4.584;2023-03-19T06:20:25;11.40;99.90
22974;DHT22;11653;50.848;4.584;2023-03-19T06:22:51;11.50;99.90
22974;DHT22;11653;50.848;4.584;2023-03-19T06:25:17;11.50;99.90
22974;DHT22;11653;50.848;4.584;2023-03-19T06:27:43;11.70;99.90
22974;DHT22;11653;50.848;4.584;2023-03-19T06:30:09;12.40;99.90
22974;DHT22;11653;50.848;4.584;2023-03-19T06:32:35;13.10;99.90
22974;DHT22;11653;50.848;4.584;2023-03-19T06:35:01;13.70;99.90
22974;DHT22;11653;50.848;4.584;2023-03-19T06:37:27;14.00;99.90
22974;DHT22;11653;50.848;4.584;2023-03-19T06:39:53;14.10;99.90
22974;DHT22;11653;50.848;4.584;2023-03-19T06:42:23;14.10;99.90
22974;DHT22;11653;50.848;4.584;2023-03-19T06:44:48;14.00;99.90
22974;DHT22;11653;50.848;4.584;2023-03-19T06:47:14;14.10;99.90
22974;DHT22;11653;50.848;4.584;2023-03-19T06:49:40;14.30;99.90
22974;DHT22;11653;50.848;4.584;2023-03-19T06:52:06;14.60;99.90
22974;DHT22;11653;50.848;4.584;2023-03-19T06:54:32;14.80;99.90
22974;DHT22;11653;50.848;4.584;2023-03-19T06:56:58;14.80;99.90
22974;DHT22;11653;50.848;4.584;2023-03-19T06:59:24;14.70;99.90
22974;DHT22;11653;50.848;4.584;2023-03-19T07:01:50;14.50;99.90
22974;DHT22;11653;50.848;4.584;2023-03-19T07:04:17;14.50;99.90
22974;DHT22;11653;50.848;4.584;2023-03-19T07:06:42;14.40;99.90
22974;DHT22;11653;50.848;4.584;2023-03-19T07:09:08;14.30;99.90
22974;DHT22;11653;50.848;4.584;2023-03-19T07:11:34;14.30;99.90
22974;DHT22;11653;50.848;4.584;2023-03-19T07:14:00;14.30;99.90
22974;DHT22;11653;50.848;4.584;2023-03-19T07:16:26;14.20;99.90
22974;DHT22;11653;50.848;4.584;2023-03-19T07:18:51;13.90;99.90
22974;DHT22;11653;50.848;4.584;2023-03-19T07:21:17;14.00;99.90
22974;DHT22;11653;50.848;4.584;2023-03-19T07:23:43;14.40;99.90
22974;DHT22;11653;50.848;4.584;2023-03-19T07:26:11;15.00;99.90
22974;DHT22;11653;50.848;4.584;2023-03-19T07:28:38;15.70;99.90
22974;DHT22;11653;50.848;4.584;2023-03-19T07:31:06;16.40;99.90
22974;DHT22;11653;50.848;4.584;2023-03-19T07:33:31;16.70;99.90
22974;DHT22;11653;50.848;4.584;2023-03-19T07:35:57;17.20;99.90
22974;DHT22;11653;50.848;4.584;2023-03-19T07:38:23;17.80;99.90
22974;DHT22;11653;50.848;4.584;2023-03-19T07:40:49;18.40;99.90
22974;DHT22;11653;50.848;4.584;2023-03-19T07:43:15;19.00;99.90
22974;DHT22;11653;50.848;4.584;2023-03-19T07:45:42;19.30;99.90
22974;DHT22;11653;50.848;4.584;2023-03-19T07:48:09;19.60;99.90
22974;DHT22;11653;50.848;4.584;2023-03-19T07:50:35;20.10;99.90
22974;DHT22;11653;50.848;4.584;2023-03-19T07:53:01;20.50;99.90
22974;DHT22;11653;50.848;4.584;2023-03-19T07:55:26;21.00;99.90
22974;DHT22;11653;50.848;4.584;2023-03-19T07:57:52;21.20;99.90
22974;DHT22;11653;50.848;4.584;2023-03-19T08:00:18;21.50;99.90
22974;DHT22;11653;50.848;4.584;2023-03-19T08:02:44;21.40;99.30
22974;DHT22;11653;50.848;4.584;2023-03-19T08:05:10;21.30;99.40
22974;DHT22;11653;50.848;4.584;2023-03-19T08:07:36;21.40;99.40
22974;DHT22;11653;50.848;4.584;2023-03-19T08:10:05;21.50;99.40
22974;DHT22;11653;50.848;4.584;2023-03-19T08:12:31;22.00;97.80
22974;DHT22;11653;50.848;4.584;2023-03-19T08:14:58;22.40;96.80
22974;DHT22;11653;50.848;4.584;2023-03-19T08:17:24;22.60;96.20
22974;DHT22;11653;50.848;4.584;2023-03-19T08:19:50;22.70;94.80
22974;DHT22;11653;50.848;4.584;2023-03-19T08:22:16;22.80;95.20
22974;DHT22;11653;50.848;4.584;2023-03-19T08:24:42;23.40;94.10
22974;DHT22;11653;50.848;4.584;2023-03-19T08:27:07;23.70;92.80
22974;DHT22;11653;50.848;4.584;2023-03-19T08:29:34;23.80;92.00
22974;DHT22;11653;50.848;4.584;2023-03-19T08:32:01;23.90;91.30
22974;DHT22;11653;50.848;4.584;2023-03-19T08:34:26;24.00;91.50
22974;DHT22;11653;50.848;4.584;2023-03-19T08:36:52;23.80;90.50
22974;DHT22;11653;50.848;4.584;2023-03-19T08:39:18;23.50;90.30
22974;DHT22;11653;50.848;4.584;2023-03-19T08:41:44;23.40;91.30
22974;DHT22;11653;50.848;4.584;2023-03-19T08:44:09;23.60;91.20
22974;DHT22;11653;50.848;4.584;2023-03-19T09:25:10;27.10;75.40
22974;DHT22;11653;50.848;4.584;2023-03-19T09:31:25;26.00;79.30
22974;DHT22;11653;50.848;4.584;2023-03-19T09:51:28;21.60;90.40
22974;DHT22;11653;50.848;4.584;2023-03-19T10:01:15;18.00;99.10
22974;DHT22;11653;50.848;4.584;2023-03-19T10:36:08;17.90;99.90
22974;DHT22;11653;50.848;4.584;2023-03-19T10:38:42;18.00;99.90
22974;DHT22;11653;50.848;4.584;2023-03-19T10:56:26;19.70;99.90
22974;DHT22;11653;50.848;4.584;2023-03-19T11:11:56;17.60;99.90
22974;DHT22;11653;50.848;4.584;2023-03-19T11:14:30;17.50;99.90
22974;DHT22;11653;50.848;4.584;2023-03-19T11:17:14;17.80;99.90
22974;DHT22;11653;50.848;4.584;2023-03-19T11:19:42;18.20;99.90
22974;DHT22;11653;50.848;4.584;2023-03-19T11:22:23;18.40;99.90
22974;DHT22;11653;50.848;4.584;2023-03-19T11:24:59;18.30;99.90
22974;DHT22;11653;50.848;4.584;2023-03-19T11:27:33;18.10;99.90
22974;DHT22;11653;50.848;4.584;2023-03-19T11:47:28;16.60;99.90
22974;DHT22;11653;50.848;4.584;2023-03-19T11:53:46;16.80;99.90
22974;DHT22;11653;50.848;4.584;2023-03-19T11:56:31;17.80;99.90
22974;DHT22;11653;50.848;4.584;2023-03-19T11:59:37;18.20;99.90
22974;DHT22;11653;50.848;4.584;2023-03-19T12:08:50;18.30;99.90
22974;DHT22;11653;50.848;4.584;2023-03-19T12:14:15;19.20;99.90
22974;DHT22;11653;50.848;4.584;2023-03-19T12:22:24;19.60;99.90
22974;DHT22;11653;50.848;4.584;2023-03-19T12:33:51;17.20;99.90
22974;DHT22;11653;50.848;4.584;2023-03-19T12:36:24;17.40;99.90
22974;DHT22;11653;50.848;4.584;2023-03-19T12:38:57;17.70;99.90
22974;DHT22;11653;50.848;4.584;2023-03-19T12:41:26;17.70;99.90
22974;DHT22;11653;50.848;4.584;2023-03-19T12:47:04;17.50;99.90
22974;DHT22;11653;50.848;4.584;2023-03-19T12:52:50;17.00;99.90
22974;DHT22;11653;50.848;4.584;2023-03-19T12:55:20;17.00;99.90
22974;DHT22;11653;50.848;4.584;2023-03-19T12:58:13;16.90;99.90
22974;DHT22;11653;50.848;4.584;2023-03-19T13:01:00;16.70;99.90
22974;DHT22;11653;50.848;4.584;2023-03-19T13:06:12;16.60;99.90
22974;DHT22;11653;50.848;4.584;2023-03-19T13:11:38;16.80;99.90
22974;DHT22;11653;50.848;4.584;2023-03-19T13:14:49;16.80;99.90
22974;DHT22;11653;50.848;4.584;2023-03-19T13:23:45;16.60;99.90
22974;DHT22;11653;50.848;4.584;2023-03-19T13:26:12;16.60;99.90
22974;DHT22;11653;50.848;4.584;2023-03-19T13:29:00;16.70;99.90
22974;DHT22;11653;50.848;4.584;2023-03-19T13:31:28;16.80;99.90
22974;DHT22;11653;50.848;4.584;2023-03-19T13:34:03;17.00;99.90
22974;DHT22;11653;50.848;4.584;2023-03-19T13:36:35;17.20;99.90
22974;DHT22;11653;50.848;4.584;2023-03-19T13:39:02;17.10;99.90
22974;DHT22;11653;50.848;4.584;2023-03-19T13:43:59;17.30;99.90
22974;DHT22;11653;50.848;4.584;2023-03-19T13:46:28;17.50;99.90
22974;DHT22;11653;50.848;4.584;2023-03-19T13:49:07;17.60;99.90
22974;DHT22;11653;50.848;4.584;2023-03-19T13:51:34;17.60;99.90
22974;DHT22;11653;50.848;4.584;2023-03-19T13:57:01;17.50;99.90
22974;DHT22;11653;50.848;4.584;2023-03-19T13:59:48;17.30;99.90
22974;DHT22;11653;50.848;4.584;2023-03-19T14:05:18;16.90;99.90
22974;DHT22;11653;50.848;4.584;2023-03-19T14:07:53;16.70;99.90
22974;DHT22;11653;50.848;4.584;2023-03-19T14:12:45;16.40;99.90
22974;DHT22;11653;50.848;4.584;2023-03-19T14:34:21;15.90;99.90
22974;DHT22;11653;50.848;4.584;2023-03-19T14:36:56;15.80;99.90
22974;DHT22;11653;50.848;4.584;2023-03-19T14:39:29;15.80;99.90
22974;DHT22;11653;50.848;4.584;2023-03-19T14:42:12;15.70;99.90
22974;DHT22;11653;50.848;4.584;2023-03-19T14:55:51;15.80;99.90
22974;DHT22;11653;50.848;4.584;2023-03-19T14:58:21;15.90;99.90
22974;DHT22;11653;50.848;4.584;2023-03-19T15:00:53;15.80;99.90
22974;DHT22;11653;50.848;4.584;2023-03-19T15:03:41;15.60;99.90
22974;DHT22;11653;50.848;4.584;2023-03-19T15:06:10;15.40;99.90
22974;DHT22;11653;50.848;4.584;2023-03-19T15:08:37;15.20;99.90
22974;DHT22;11653;50.848;4.584;2023-03-19T15:19:10;14.80;99.90
22974;DHT22;11653;50.848;4.584;2023-03-19T15:21:38;14.90;99.90
22974;DHT22;11653;50.848;4.584;2023-03-19T15:24:05;14.80;99.90
22974;DHT22;11653;50.848;4.584;2023-03-19T15:26:33;14.80;99.90
22974;DHT22;11653;50.848;4.584;2023-03-19T15:29:00;14.80;99.90
22974;DHT22;11653;50.848;4.584;2023-03-19T15:31:45;14.90;99.90
22974;DHT22;11653;50.848;4.584;2023-03-19T15:34:25;15.20;99.90
22974;DHT22;11653;50.848;4.584;2023-03-19T15:37:12;15.30;99.90
22974;DHT22;11653;50.848;4.584;2023-03-19T15:39:49;15.40;99.90
22974;DHT22;11653;50.848;4.584;2023-03-19T15:42:16;15.30;99.90
22974;DHT22;11653;50.848;4.584;2023-03-19T15:44:49;15.00;99.90
22974;DHT22;11653;50.848;4.584;2023-03-19T15:47:20;14.80;99.90
22974;DHT22;11653;50.848;4.584;2023-03-19T15:49:55;14.80;99.90
22974;DHT22;11653;50.848;4.584;2023-03-19T15:52:23;14.50;99.90
22974;DHT22;11653;50.848;4.584;2023-03-19T15:54:53;14.40;99.90
22974;DHT22;11653;50.848;4.584;2023-03-19T15:57:19;14.30;99.90
22974;DHT22;11653;50.848;4.584;2023-03-19T15:59:51;14.30;99.90
22974;DHT22;11653;50.848;4.584;2023-03-19T16:02:27;14.20;99.90
22974;DHT22;11653;50.848;4.584;2023-03-19T16:04:54;14.10;99.90
22974;DHT22;11653;50.848;4.584;2023-03-19T16:07:25;14.20;99.90
22974;DHT22;11653;50.848;4.584;2023-03-19T16:09:52;14.10;99.90
22974;DHT22;11653;50.848;4.584;2023-03-19T16:12:47;14.10;99.90
22974;DHT22;11653;50.848;4.584;2023-03-19T16:23:37;13.70;99.90
22974;DHT22;11653;50.848;4.584;2023-03-19T16:28:42;13.40;99.90
22974;DHT22;11653;50.848;4.584;2023-03-19T16:31:26;13.40;99.90
22974;DHT22;11653;50.848;4.584;2023-03-19T16:33:54;13.30;99.90
22974;DHT22;11653;50.848;4.584;2023-03-19T16:36:22;13.30;99.90
22974;DHT22;11653;50.848;4.584;2023-03-19T16:38:57;13.30;99.90
22974;DHT22;11653;50.848;4.584;2023-03-19T16:41:30;13.20;99.90
22974;DHT22;11653;50.848;4.584;2023-03-19T16:44:16;13.20;99.90
22974;DHT22;11653;50.848;4.584;2023-03-19T16:46:49;13.00;99.90
22974;DHT22;11653;50.848;4.584;2023-03-19T16:49:18;12.90;99.90
22974;DHT22;11653;50.848;4.584;2023-03-19T16:51:46;12.70;99.90
22974;DHT22;11653;50.848;4.584;2023-03-19T16:54:12;12.70;99.90
22974;DHT22;11653;50.848;4.584;2023-03-19T16:56:38;12.70;99.90
22974;DHT22;11653;50.848;4.584;2023-03-19T16:59:04;12.70;99.90
22974;DHT22;11653;50.848;4.584;2023-03-19T17:01:30;12.60;99.90
22974;DHT22;11653;50.848;4.584;2023-03-19T17:03:55;12.50;99.90
22974;DHT22;11653;50.848;4.584;2023-03-19T17:06:21;12.40;99.90
22974;DHT22;11653;50.848;4.584;2023-03-19T17:08:47;12.40;99.90
22974;DHT22;11653;50.848;4.584;2023-03-19T17:11:21;12.30;99.90
22974;DHT22;11653;50.848;4.584;2023-03-19T17:13:49;12.20;99.90
22974;DHT22;11653;50.848;4.584;2023-03-19T17:16:15;12.10;99.90
22974;DHT22;11653;50.848;4.584;2023-03-19T17:18:42;12.00;99.90
22974;DHT22;11653;50.848;4.584;2023-03-19T17:21:14;11.90;99.90
22974;DHT22;11653;50.848;4.584;2023-03-19T17:23:41;11.80;99.90
22974;DHT22;11653;50.848;4.584;2023-03-19T17:26:22;11.80;99.90
22974;DHT22;11653;50.848;4.584;2023-03-19T17:28:50;11.70;99.90
22974;DHT22;11653;50.848;4.584;2023-03-19T17:31:25;11.60;99.90
22974;DHT22;11653;50.848;4.584;2023-03-19T17:34:01;11.60;99.90
22974;DHT22;11653;50.848;4.584;2023-03-19T17:36:26;11.60;99.90
22974;DHT22;11653;50.848;4.584;2023-03-19T17:38:52;11.60;99.90
22974;DHT22;11653;50.848;4.584;2023-03-19T17:41:18;11.50;99.90
22974;DHT22;11653;50.848;4.584;2023-03-19T17:43:45;11.40;99.90
22974;DHT22;11653;50.848;4.584;2023-03-19T17:46:20;11.30;99.90
22974;DHT22;11653;50.848;4.584;2023-03-19T17:48:47;11.10;99.90
22974;DHT22;11653;50.848;4.584;2023-03-19T17:51:14;11.10;99.90
22974;DHT22;11653;50.848;4.584;2023-03-19T17:53:41;11.10;99.90
22974;DHT22;11653;50.848;4.584;2023-03-19T17:56:12;11.00;99.90
22974;DHT22;11653;50.848;4.584;2023-03-19T17:58:40;11.10;99.90
22974;DHT22;11653;50.848;4.584;2023-03-19T18:01:13;11.20;99.90
22974;DHT22;11653;50.848;4.584;2023-03-19T18:03:39;11.30;99.90
22974;DHT22;11653;50.848;4.584;2023-03-19T18:06:05;11.30;99.90
22974;DHT22;11653;50.848;4.584;2023-03-19T18:08:31;11.30;99.90
22974;DHT22;11653;50.848;4.584;2023-03-19T18:10:57;11.20;99.90
22974;DHT22;11653;50.848;4.584;2023-03-19T18:13:22;11.20;99.90
22974;DHT22;11653;50.848;4.584;2023-03-19T18:15:48;11.10;99.90
22974;DHT22;11653;50.848;4.584;2023-03-19T18:18:20;11.20;99.90
22974;DHT22;11653;50.848;4.584;2023-03-19T18:20:46;11.30;99.90
22974;DHT22;11653;50.848;4.584;2023-03-19T18:23:13;11.30;99.90
22974;DHT22;11653;50.848;4.584;2023-03-19T18:25:41;11.40;99.90
22974;DHT22;11653;50.848;4.584;2023-03-19T18:28:07;11.40;99.90
22974;DHT22;11653;50.848;4.584;2023-03-19T18:30:34;11.50;99.90
22974;DHT22;11653;50.848;4.584;2023-03-19T18:33:04;11.50;99.90
22974;DHT22;11653;50.848;4.584;2023-03-19T18:35:37;11.60;99.90
22974;DHT22;11653;50.848;4.584;2023-03-19T18:38:11;11.60;99.90
22974;DHT22;11653;50.848;4.584;2023-03-19T18:40:37;11.70;99.90
22974;DHT22;11653;50.848;4.584;2023-03-19T18:43:05;11.60;99.90
22974;DHT22;11653;50.848;4.584;2023-03-19T18:45:32;11.50;99.90
22974;DHT22;11653;50.848;4.584;2023-03-19T18:47:58;11.40;99.90
22974;DHT22;11653;50.848;4.584;2023-03-19T18:50:27;11.30;99.90
22974;DHT22;11653;50.848;4.584;2023-03-19T18:52:54;11.20;99.90
22974;DHT22;11653;50.848;4.584;2023-03-19T18:55:27;11.30;99.90
22974;DHT22;11653;50.848;4.584;2023-03-19T18:57:55;11.30;99.90
22974;DHT22;11653;50.848;4.584;2023-03-19T19:00:40;11.40;99.90
22974;DHT22;11653;50.848;4.584;2023-03-19T19:03:06;11.40;99.90
22974;DHT22;11653;50.848;4.584;2023-03-19T19:05:32;11.50;99.90
22974;DHT22;11653;50.848;4.584;2023-03-19T19:08:00;11.50;99.90
22974;DHT22;11653;50.848;4.584;2023-03-19T19:10:31;11.50;99.90
22974;DHT22;11653;50.848;4.584;2023-03-19T19:12:58;11.70;99.90
22974;DHT22;11653;50.848;4.584;2023-03-19T19:15:28;11.60;99.90
22974;DHT22;11653;50.848;4.584;2023-03-19T19:17:55;11.50;99.90
22974;DHT22;11653;50.848;4.584;2023-03-19T19:20:26;11.50;99.90
22974;DHT22;11653;50.848;4.584;2023-03-19T19:22:53;11.50;99.90
22974;DHT22;11653;50.848;4.584;2023-03-19T19:25:21;11.40;99.90
22974;DHT22;11653;50.848;4.584;2023-03-19T19:27:50;11.40;99.90
22974;DHT22;11653;50.848;4.584;2023-03-19T19:30:19;11.30;99.90
22974;DHT22;11653;50.848;4.584;2023-03-19T19:32:46;11.20;99.90
22974;DHT22;11653;50.848;4.584;2023-03-19T19:35:21;11.20;99.90
22974;DHT22;11653;50.848;4.584;2023-03-19T19:37:47;11.30;99.90
22974;DHT22;11653;50.848;4.584;2023-03-19T19:40:19;11.30;99.90
22974;DHT22;11653;50.848;4.584;2023-03-19T19:42:48;11.30;99.90
22974;DHT22;11653;50.848;4.584;2023-03-19T19:45:36;11.30;99.90
22974;DHT22;11653;50.848;4.584;2023-03-19T19:48:06;11.30;99.90
22974;DHT22;11653;50.848;4.584;2023-03-19T19:50:35;11.20;99.90
22974;DHT22;11653;50.848;4.584;2023-03-19T19:53:01;11.20;99.90
22974;DHT22;11653;50.848;4.584;2023-03-19T19:55:28;11.20;99.90
22974;DHT22;11653;50.848;4.584;2023-03-19T19:57:55;11.20;99.90
22974;DHT22;11653;50.848;4.584;2023-03-19T20:00:24;11.30;99.90